sensor_id;sensor_type;location;lat;lon;timestamp;temperature;humidity
64012;DHT22;50211;52.768;12.124;2022-08-19T00:02:21;21.70;99.90
64012;DHT22;50211;52.768;12.124;2022-08-19T00:04:46;21.60;99.90
64012;DHT22;50211;52.768;12.124;2022-08-19T00:07:13;21.60;99.90
64012;DHT22;50211;52.768;12.124;2022-08-19T00:09:39;21.70;99.90
64012;DHT22;50211;52.768;12.124;2022-08-19T00:12:05;21.60;99.90
64012;DHT22;50211;52.768;12.124;2022-08-19T00:14:30;21.70;99.90
64012;DHT22;50211;52.768;12.124;2022-08-19T00:16:56;21.60;99.90
64012;DHT22;50211;52.768;12.124;2022-08-19T00:19:23;21.50;99.90
64012;DHT22;50211;52.768;12.124;2022-08-19T00:21:48;21.50;99.90
64012;DHT22;50211;52.768;12.124;2022-08-19T00:24:14;21.50;99.90
64012;DHT22;50211;52.768;12.124;2022-08-19T00:26:41;21.50;99.90
64012;DHT22;50211;52.768;12.124;2022-08-19T00:29:10;21.50;99.90
64012;DHT22;50211;52.768;12.124;2022-08-19T00:31:35;21.50;99.90
64012;DHT22;50211;52.768;12.124;2022-08-19T00:34:02;21.50;99.90
64012;DHT22;50211;52.768;12.124;2022-08-19T00:36:28;21.60;99.90
64012;DHT22;50211;52.768;12.124;2022-08-19T00:38:54;21.60;99.90
64012;DHT22;50211;52.768;12.124;2022-08-19T00:41:21;21.50;99.90
64012;DHT22;50211;52.768;12.124;2022-08-19T00:44:09;21.50;99.90
64012;DHT22;50211;52.768;12.124;2022-08-19T00:46:36;21.40;99.90
64012;DHT22;50211;52.768;12.124;2022-08-19T00:49:08;21.40;99.90
64012;DHT22;50211;52.768;12.124;2022-08-19T00:51:34;21.40;99.90
64012;DHT22;50211;52.768;12.124;2022-08-19T00:54:02;21.30;99.90
64012;DHT22;50211;52.768;12.124;2022-08-19T00:56:28;21.40;99.90
64012;DHT22;50211;52.768;12.124;2022-08-19T00:58:56;21.40;99.90
64012;DHT22;50211;52.768;12.124;2022-08-19T01:01:22;21.30;99.90
64012;DHT22;50211;52.768;12.124;2022-08-19T01:03:48;21.20;99.90
64012;DHT22;50211;52.768;12.124;2022-08-19T01:06:13;21.20;99.90
64012;DHT22;50211;52.768;12.124;2022-08-19T01:08:39;21.10;99.90
64012;DHT22;50211;52.768;12.124;2022-08-19T01:11:06;21.10;99.90
64012;DHT22;50211;52.768;12.124;2022-08-19T01:13:33;21.10;99.90
64012;DHT22;50211;52.768;12.124;2022-08-19T01:16:02;21.10;99.90
64012;DHT22;50211;52.768;12.124;2022-08-19T01:18:30;21.10;99.90
64012;DHT22;50211;52.768;12.124;2022-08-19T01:20:58;21.10;99.90
64012;DHT22;50211;52.768;12.124;2022-08-19T01:23:25;21.00;99.90
64012;DHT22;50211;52.768;12.124;2022-08-19T01:26:12;21.00;99.90
64012;DHT22;50211;52.768;12.124;2022-08-19T01:28:39;21.00;99.90
64012;DHT22;50211;52.768;12.124;2022-08-19T01:31:08;21.00;99.90
64012;DHT22;50211;52.768;12.124;2022-08-19T01:33:33;21.10;99.90
64012;DHT22;50211;52.768;12.124;2022-08-19T01:36:13;21.00;99.90
64012;DHT22;50211;52.768;12.124;2022-08-19T01:38:41;20.90;99.90
64012;DHT22;50211;52.768;12.124;2022-08-19T01:41:09;20.80;99.90
64012;DHT22;50211;52.768;12.124;2022-08-19T01:43:34;20.80;99.90
64012;DHT22;50211;52.768;12.124;2022-08-19T01:46:00;20.70;99.90
64012;DHT22;50211;52.768;12.124;2022-08-19T01:48:33;20.70;99.90
64012;DHT22;50211;52.768;12.124;2022-08-19T01:50:58;20.80;99.90
64012;DHT22;50211;52.768;12.124;2022-08-19T01:53:24;20.80;99.90
64012;DHT22;50211;52.768;12.124;2022-08-19T01:55:49;20.90;99.90
64012;DHT22;50211;52.768;12.124;2022-08-19T01:58:19;20.90;99.90
64012;DHT22;50211;52.768;12.124;2022-08-19T02:00:46;20.90;99.90
64012;DHT22;50211;52.768;12.124;2022-08-19T02:03:12;20.90;99.90
64012;DHT22;50211;52.768;12.124;2022-08-19T02:05:38;20.80;99.90
64012;DHT22;50211;52.768;12.124;2022-08-19T02:08:04;20.70;99.90
64012;DHT22;50211;52.768;12.124;2022-08-19T02:10:31;20.70;99.90
64012;DHT22;50211;52.768;12.124;2022-08-19T02:12:57;20.50;99.90
64012;DHT22;50211;52.768;12.124;2022-08-19T02:15:23;20.60;99.90
64012;DHT22;50211;52.768;12.124;2022-08-19T02:17:48;20.50;99.90
64012;DHT22;50211;52.768;12.124;2022-08-19T02:20:15;20.50;99.90
64012;DHT22;50211;52.768;12.124;2022-08-19T02:22:41;20.50;99.90
64012;DHT22;50211;52.768;12.124;2022-08-19T02:25:10;20.50;99.90
64012;DHT22;50211;52.768;12.124;2022-08-19T02:27:35;20.30;99.90
64012;DHT22;50211;52.768;12.124;2022-08-19T02:30:03;20.10;99.90
64012;DHT22;50211;52.768;12.124;2022-08-19T02:32:29;20.00;99.90
64012;DHT22;50211;52.768;12.124;2022-08-19T02:34:55;20.00;99.90
64012;DHT22;50211;52.768;12.124;2022-08-19T02:37:21;20.00;99.90
64012;DHT22;50211;52.768;12.124;2022-08-19T02:40:05;19.90;99.90
64012;DHT22;50211;52.768;12.124;2022-08-19T02:42:32;19.80;99.90
64012;DHT22;50211;52.768;12.124;2022-08-19T02:44:57;19.70;99.90
64012;DHT22;50211;52.768;12.124;2022-08-19T02:47:23;19.70;99.90
64012;DHT22;50211;52.768;12.124;2022-08-19T02:49:48;19.80;99.90
64012;DHT22;50211;52.768;12.124;2022-08-19T02:52:15;19.80;99.90
64012;DHT22;50211;52.768;12.124;2022-08-19T02:54:41;19.80;99.90
64012;DHT22;50211;52.768;12.124;2022-08-19T02:57:07;19.80;99.90
64012;DHT22;50211;52.768;12.124;2022-08-19T02:59:33;19.90;99.90
64012;DHT22;50211;52.768;12.124;2022-08-19T03:01:58;20.00;99.90
64012;DHT22;50211;52.768;12.124;2022-08-19T03:04:24;20.10;99.90
64012;DHT22;50211;52.768;12.124;2022-08-19T03:06:50;20.20;99.90
64012;DHT22;50211;52.768;12.124;2022-08-19T03:09:18;20.20;99.90
64012;DHT22;50211;52.768;12.124;2022-08-19T03:11:44;20.10;99.90
64012;DHT22;50211;52.768;12.124;2022-08-19T03:14:10;20.00;99.90
64012;DHT22;50211;52.768;12.124;2022-08-19T03:16:48;20.00;99.90
64012;DHT22;50211;52.768;12.124;2022-08-19T03:19:16;20.00;99.90
64012;DHT22;50211;52.768;12.124;2022-08-19T03:21:43;19.90;99.90
64012;DHT22;50211;52.768;12.124;2022-08-19T03:24:10;19.90;99.90
64012;DHT22;50211;52.768;12.124;2022-08-19T03:26:39;19.80;99.90
64012;DHT22;50211;52.768;12.124;2022-08-19T03:29:05;19.80;99.90
64012;DHT22;50211;52.768;12.124;2022-08-19T03:31:31;19.80;99.90
64012;DHT22;50211;52.768;12.124;2022-08-19T03:33:57;19.80;99.90
64012;DHT22;50211;52.768;12.124;2022-08-19T03:36:25;19.80;99.90
64012;DHT22;50211;52.768;12.124;2022-08-19T03:38:58;19.80;99.90
64012;DHT22;50211;52.768;12.124;2022-08-19T03:41:26;19.80;99.90
64012;DHT22;50211;52.768;12.124;2022-08-19T03:43:53;19.80;99.90
64012;DHT22;50211;52.768;12.124;2022-08-19T03:46:21;19.80;99.90
64012;DHT22;50211;52.768;12.124;2022-08-19T03:48:48;19.80;99.90
64012;DHT22;50211;52.768;12.124;2022-08-19T03:51:19;19.80;99.90
64012;DHT22;50211;52.768;12.124;2022-08-19T03:53:45;19.80;99.90
64012;DHT22;50211;52.768;12.124;2022-08-19T03:56:11;19.80;99.90
64012;DHT22;50211;52.768;12.124;2022-08-19T03:58:38;19.70;99.90
64012;DHT22;50211;52.768;12.124;2022-08-19T04:01:07;19.80;99.90
64012;DHT22;50211;52.768;12.124;2022-08-19T04:03:33;19.80;99.90
64012;DHT22;50211;52.768;12.124;2022-08-19T04:06:12;19.80;99.90
64012;DHT22;50211;52.768;12.124;2022-08-19T04:08:43;19.80;99.90
64012;DHT22;50211;52.768;12.124;2022-08-19T04:11:15;19.70;99.90
64012;DHT22;50211;52.768;12.124;2022-08-19T04:13:41;19.80;99.90
64012;DHT22;50211;52.768;12.124;2022-08-19T04:16:08;19.70;99.90
64012;DHT22;50211;52.768;12.124;2022-08-19T04:18:36;19.60;99.90
64012;DHT22;50211;52.768;12.124;2022-08-19T04:21:03;19.50;99.90
64012;DHT22;50211;52.768;12.124;2022-08-19T04:23:29;19.50;99.90
64012;DHT22;50211;52.768;12.124;2022-08-19T04:25:55;19.50;99.90
64012;DHT22;50211;52.768;12.124;2022-08-19T04:28:21;19.40;99.90
64012;DHT22;50211;52.768;12.124;2022-08-19T04:30:51;19.40;99.90
64012;DHT22;50211;52.768;12.124;2022-08-19T04:33:20;19.40;99.90
64012;DHT22;50211;52.768;12.124;2022-08-19T04:35:48;19.40;99.90
64012;DHT22;50211;52.768;12.124;2022-08-19T04:38:16;19.50;99.90
64012;DHT22;50211;52.768;12.124;2022-08-19T04:40:45;19.50;99.90
64012;DHT22;50211;52.768;12.124;2022-08-19T04:43:30;19.50;99.90
64012;DHT22;50211;52.768;12.124;2022-08-19T04:45:56;19.50;99.90
64012;DHT22;50211;52.768;12.124;2022-08-19T04:48:22;19.50;99.90
64012;DHT22;50211;52.768;12.124;2022-08-19T04:50:53;19.50;99.90
64012;DHT22;50211;52.768;12.124;2022-08-19T04:53:26;19.60;99.90
64012;DHT22;50211;52.768;12.124;2022-08-19T04:55:54;19.60;99.90
64012;DHT22;50211;52.768;12.124;2022-08-19T04:58:20;19.60;99.90
64012;DHT22;50211;52.768;12.124;2022-08-19T05:00:45;19.70;99.90
64012;DHT22;50211;52.768;12.124;2022-08-19T05:03:11;19.70;99.90
64012;DHT22;50211;52.768;12.124;2022-08-19T05:05:41;19.70;99.90
64012;DHT22;50211;52.768;12.124;2022-08-19T05:08:06;19.70;99.90
64012;DHT22;50211;52.768;12.124;2022-08-19T05:10:37;19.70;99.90
64012;DHT22;50211;52.768;12.124;2022-08-19T05:13:03;19.70;99.90
64012;DHT22;50211;52.768;12.124;2022-08-19T05:15:29;19.70;99.90
64012;DHT22;50211;52.768;12.124;2022-08-19T05:17:54;19.70;99.90
64012;DHT22;50211;52.768;12.124;2022-08-19T05:20:39;19.70;99.90
64012;DHT22;50211;52.768;12.124;2022-08-19T05:23:23;19.70;99.90
64012;DHT22;50211;52.768;12.124;2022-08-19T05:25:50;19.80;99.90
64012;DHT22;50211;52.768;12.124;2022-08-19T05:28:17;19.70;99.90
64012;DHT22;50211;52.768;12.124;2022-08-19T05:30:42;19.80;99.90
64012;DHT22;50211;52.768;12.124;2022-08-19T05:33:10;19.80;99.90
64012;DHT22;50211;52.768;12.124;2022-08-19T05:35:38;19.80;99.90
64012;DHT22;50211;52.768;12.124;2022-08-19T05:38:05;19.90;99.90
64012;DHT22;50211;52.768;12.124;2022-08-19T05:40:34;19.90;99.90
64012;DHT22;50211;52.768;12.124;2022-08-19T05:43:01;19.90;99.90
64012;DHT22;50211;52.768;12.124;2022-08-19T05:45:27;20.00;99.90
64012;DHT22;50211;52.768;12.124;2022-08-19T05:47:53;19.90;99.90
64012;DHT22;50211;52.768;12.124;2022-08-19T05:50:19;20.00;99.90
64012;DHT22;50211;52.768;12.124;2022-08-19T05:52:44;20.00;99.90
64012;DHT22;50211;52.768;12.124;2022-08-19T05:55:10;19.90;99.90
64012;DHT22;50211;52.768;12.124;2022-08-19T05:57:36;20.00;99.90
64012;DHT22;50211;52.768;12.124;2022-08-19T06:00:03;20.00;99.90
64012;DHT22;50211;52.768;12.124;2022-08-19T06:02:33;20.10;99.90
64012;DHT22;50211;52.768;12.124;2022-08-19T06:04:58;20.10;99.90
64012;DHT22;50211;52.768;12.124;2022-08-19T06:07:24;20.10;99.90
64012;DHT22;50211;52.768;12.124;2022-08-19T06:09:49;20.20;99.90
64012;DHT22;50211;52.768;12.124;2022-08-19T06:12:15;20.20;99.90
64012;DHT22;50211;52.768;12.124;2022-08-19T06:14:40;20.20;99.90
64012;DHT22;50211;52.768;12.124;2022-08-19T06:17:06;20.30;99.90
64012;DHT22;50211;52.768;12.124;2022-08-19T06:19:32;20.30;99.90
64012;DHT22;50211;52.768;12.124;2022-08-19T06:21:59;20.20;99.90
64012;DHT22;50211;52.768;12.124;2022-08-19T06:24:27;20.20;99.90
64012;DHT22;50211;52.768;12.124;2022-08-19T06:26:55;20.20;99.90
64012;DHT22;50211;52.768;12.124;2022-08-19T06:29:23;20.20;99.90
64012;DHT22;50211;52.768;12.124;2022-08-19T06:31:52;20.20;99.90
64012;DHT22;50211;52.768;12.124;2022-08-19T06:34:19;20.20;99.90
64012;DHT22;50211;52.768;12.124;2022-08-19T06:36:47;20.10;99.90
64012;DHT22;50211;52.768;12.124;2022-08-19T06:39:17;20.20;99.90
64012;DHT22;50211;52.768;12.124;2022-08-19T06:41:46;20.20;99.90
64012;DHT22;50211;52.768;12.124;2022-08-19T06:44:12;20.20;99.90
64012;DHT22;50211;52.768;12.124;2022-08-19T06:46:39;20.20;99.90
64012;DHT22;50211;52.768;12.124;2022-08-19T06:49:05;20.20;99.90
64012;DHT22;50211;52.768;12.124;2022-08-19T06:51:31;20.10;99.90
64012;DHT22;50211;52.768;12.124;2022-08-19T06:53:57;20.00;99.90
64012;DHT22;50211;52.768;12.124;2022-08-19T06:56:28;20.00;99.90
64012;DHT22;50211;52.768;12.124;2022-08-19T06:59:05;20.00;99.90
64012;DHT22;50211;52.768;12.124;2022-08-19T07:01:37;20.00;99.90
64012;DHT22;50211;52.768;12.124;2022-08-19T07:04:05;20.00;99.90
64012;DHT22;50211;52.768;12.124;2022-08-19T07:06:31;20.00;99.90
64012;DHT22;50211;52.768;12.124;2022-08-19T07:08:57;20.00;99.90
64012;DHT22;50211;52.768;12.124;2022-08-19T07:11:23;20.00;99.90
64012;DHT22;50211;52.768;12.124;2022-08-19T07:13:49;20.00;99.90
64012;DHT22;50211;52.768;12.124;2022-08-19T07:16:18;20.00;99.90
64012;DHT22;50211;52.768;12.124;2022-08-19T07:18:46;20.00;99.90
64012;DHT22;50211;52.768;12.124;2022-08-19T07:21:15;20.00;99.90
64012;DHT22;50211;52.768;12.124;2022-08-19T07:23:42;20.00;99.90
64012;DHT22;50211;52.768;12.124;2022-08-19T07:26:12;20.00;99.90
64012;DHT22;50211;52.768;12.124;2022-08-19T07:28:37;20.00;99.90
64012;DHT22;50211;52.768;12.124;2022-08-19T07:31:07;19.90;99.90
64012;DHT22;50211;52.768;12.124;2022-08-19T07:33:33;19.90;99.90
64012;DHT22;50211;52.768;12.124;2022-08-19T07:35:59;19.90;99.90
64012;DHT22;50211;52.768;12.124;2022-08-19T07:38:24;19.80;99.90
64012;DHT22;50211;52.768;12.124;2022-08-19T07:40:50;19.70;99.90
64012;DHT22;50211;52.768;12.124;2022-08-19T07:43:17;19.80;99.90
64012;DHT22;50211;52.768;12.124;2022-08-19T07:45:51;19.80;99.90
64012;DHT22;50211;52.768;12.124;2022-08-19T07:48:18;19.80;99.90
64012;DHT22;50211;52.768;12.124;2022-08-19T07:50:43;19.70;99.90
64012;DHT22;50211;52.768;12.124;2022-08-19T07:53:09;19.80;99.90
64012;DHT22;50211;52.768;12.124;2022-08-19T07:55:34;19.70;99.90
64012;DHT22;50211;52.768;12.124;2022-08-19T07:58:00;19.70;99.90
64012;DHT22;50211;52.768;12.124;2022-08-19T08:00:26;19.70;99.90
64012;DHT22;50211;52.768;12.124;2022-08-19T08:02:52;19.70;99.90
64012;DHT22;50211;52.768;12.124;2022-08-19T08:05:18;19.70;99.90
64012;DHT22;50211;52.768;12.124;2022-08-19T08:08:02;19.60;99.90
64012;DHT22;50211;52.768;12.124;2022-08-19T08:10:46;19.70;99.90
64012;DHT22;50211;52.768;12.124;2022-08-19T08:13:12;19.70;99.90
64012;DHT22;50211;52.768;12.124;2022-08-19T08:15:38;19.60;99.90
64012;DHT22;50211;52.768;12.124;2022-08-19T08:18:04;19.60;99.90
64012;DHT22;50211;52.768;12.124;2022-08-19T08:20:30;19.70;99.90
64012;DHT22;50211;52.768;12.124;2022-08-19T08:22:55;19.70;99.90
64012;DHT22;50211;52.768;12.124;2022-08-19T08:25:39;19.70;99.90
64012;DHT22;50211;52.768;12.124;2022-08-19T08:28:05;19.80;99.90
64012;DHT22;50211;52.768;12.124;2022-08-19T08:30:32;19.70;99.90
64012;DHT22;50211;52.768;12.124;2022-08-19T08:33:00;19.70;99.90
64012;DHT22;50211;52.768;12.124;2022-08-19T08:35:25;19.70;99.90
64012;DHT22;50211;52.768;12.124;2022-08-19T08:37:53;19.70;99.90
64012;DHT22;50211;52.768;12.124;2022-08-19T08:40:30;19.60;99.90
64012;DHT22;50211;52.768;12.124;2022-08-19T08:45:50;19.60;99.90
64012;DHT22;50211;52.768;12.124;2022-08-19T08:48:22;19.60;99.90
64012;DHT22;50211;52.768;12.124;2022-08-19T08:50:50;19.60;99.90
64012;DHT22;50211;52.768;12.124;2022-08-19T08:53:19;19.60;99.90
64012;DHT22;50211;52.768;12.124;2022-08-19T08:55:46;19.60;99.90
64012;DHT22;50211;52.768;12.124;2022-08-19T08:58:24;19.60;99.90
64012;DHT22;50211;52.768;12.124;2022-08-19T09:00:51;19.60;99.90
64012;DHT22;50211;52.768;12.124;2022-08-19T09:03:20;19.60;99.90
64012;DHT22;50211;52.768;12.124;2022-08-19T09:06:07;19.50;99.90
64012;DHT22;50211;52.768;12.124;2022-08-19T09:08:40;19.60;99.90
64012;DHT22;50211;52.768;12.124;2022-08-19T09:11:15;19.60;99.90
64012;DHT22;50211;52.768;12.124;2022-08-19T09:14:07;19.60;99.90
64012;DHT22;50211;52.768;12.124;2022-08-19T09:16:34;19.60;99.90
64012;DHT22;50211;52.768;12.124;2022-08-19T09:19:06;19.70;99.90
64012;DHT22;50211;52.768;12.124;2022-08-19T09:21:32;19.60;99.90
64012;DHT22;50211;52.768;12.124;2022-08-19T09:23:57;19.70;99.90
64012;DHT22;50211;52.768;12.124;2022-08-19T09:26:24;19.70;99.90
64012;DHT22;50211;52.768;12.124;2022-08-19T09:28:51;19.70;99.90
64012;DHT22;50211;52.768;12.124;2022-08-19T09:31:26;19.70;99.90
64012;DHT22;50211;52.768;12.124;2022-08-19T09:33:52;19.70;99.90
64012;DHT22;50211;52.768;12.124;2022-08-19T09:36:23;19.80;99.90
64012;DHT22;50211;52.768;12.124;2022-08-19T09:38:50;19.80;99.90
64012;DHT22;50211;52.768;12.124;2022-08-19T09:41:19;19.80;99.90
64012;DHT22;50211;52.768;12.124;2022-08-19T09:43:46;19.70;99.90
64012;DHT22;50211;52.768;12.124;2022-08-19T09:46:12;19.70;99.90
64012;DHT22;50211;52.768;12.124;2022-08-19T09:48:39;19.70;99.90
64012;DHT22;50211;52.768;12.124;2022-08-19T09:51:12;19.70;99.90
64012;DHT22;50211;52.768;12.124;2022-08-19T09:53:42;19.70;99.90
64012;DHT22;50211;52.768;12.124;2022-08-19T09:56:08;19.70;99.90
64012;DHT22;50211;52.768;12.124;2022-08-19T09:58:34;19.70;99.90
64012;DHT22;50211;52.768;12.124;2022-08-19T10:01:01;19.80;99.90
64012;DHT22;50211;52.768;12.124;2022-08-19T10:03:28;19.80;99.90
64012;DHT22;50211;52.768;12.124;2022-08-19T10:05:56;19.80;99.90
64012;DHT22;50211;52.768;12.124;2022-08-19T10:08:25;19.70;99.90
64012;DHT22;50211;52.768;12.124;2022-08-19T10:10:51;19.70;99.90
64012;DHT22;50211;52.768;12.124;2022-08-19T10:13:19;19.70;99.90
64012;DHT22;50211;52.768;12.124;2022-08-19T10:15:50;19.70;99.90
64012;DHT22;50211;52.768;12.124;2022-08-19T10:18:18;19.70;99.90
64012;DHT22;50211;52.768;12.124;2022-08-19T10:20:45;19.70;99.90
64012;DHT22;50211;52.768;12.124;2022-08-19T10:23:11;19.80;99.90
64012;DHT22;50211;52.768;12.124;2022-08-19T10:25:37;19.80;99.90
64012;DHT22;50211;52.768;12.124;2022-08-19T10:28:03;19.70;99.90
64012;DHT22;50211;52.768;12.124;2022-08-19T10:30:29;19.70;99.90
64012;DHT22;50211;52.768;12.124;2022-08-19T10:32:55;19.70;99.90
64012;DHT22;50211;52.768;12.124;2022-08-19T10:35:21;19.60;99.90
64012;DHT22;50211;52.768;12.124;2022-08-19T10:37:46;19.60;99.90
64012;DHT22;50211;52.768;12.124;2022-08-19T10:40:12;19.70;99.90
64012;DHT22;50211;52.768;12.124;2022-08-19T10:42:37;19.70;99.90
64012;DHT22;50211;52.768;12.124;2022-08-19T10:45:04;19.70;99.90
64012;DHT22;50211;52.768;12.124;2022-08-19T10:47:31;19.70;99.90
64012;DHT22;50211;52.768;12.124;2022-08-19T10:49:57;19.70;99.90
64012;DHT22;50211;52.768;12.124;2022-08-19T10:52:46;19.70;99.90
64012;DHT22;50211;52.768;12.124;2022-08-19T10:55:12;19.70;99.90
64012;DHT22;50211;52.768;12.124;2022-08-19T10:57:56;19.70;99.90
64012;DHT22;50211;52.768;12.124;2022-08-19T11:00:23;19.80;99.90
64012;DHT22;50211;52.768;12.124;2022-08-19T11:02:49;19.70;99.90
64012;DHT22;50211;52.768;12.124;2022-08-19T11:05:15;19.70;99.90
64012;DHT22;50211;52.768;12.124;2022-08-19T11:07:42;19.80;99.90
64012;DHT22;50211;52.768;12.124;2022-08-19T11:10:11;19.80;99.90
64012;DHT22;50211;52.768;12.124;2022-08-19T11:12:38;19.80;99.90
64012;DHT22;50211;52.768;12.124;2022-08-19T11:15:08;19.80;99.90
64012;DHT22;50211;52.768;12.124;2022-08-19T11:17:34;19.90;99.90
64012;DHT22;50211;52.768;12.124;2022-08-19T11:20:01;19.90;99.90
64012;DHT22;50211;52.768;12.124;2022-08-19T11:22:29;19.90;99.90
64012;DHT22;50211;52.768;12.124;2022-08-19T11:24:55;19.90;99.90
64012;DHT22;50211;52.768;12.124;2022-08-19T11:27:21;19.90;99.90
64012;DHT22;50211;52.768;12.124;2022-08-19T11:29:46;20.00;99.90
64012;DHT22;50211;52.768;12.124;2022-08-19T11:32:11;20.00;99.90
64012;DHT22;50211;52.768;12.124;2022-08-19T11:34:38;20.10;99.90
64012;DHT22;50211;52.768;12.124;2022-08-19T11:37:05;20.20;99.90
64012;DHT22;50211;52.768;12.124;2022-08-19T11:39:32;20.30;99.90
64012;DHT22;50211;52.768;12.124;2022-08-19T11:41:59;20.30;99.90
64012;DHT22;50211;52.768;12.124;2022-08-19T11:44:25;20.30;99.90
64012;DHT22;50211;52.768;12.124;2022-08-19T11:46:50;20.30;99.90
64012;DHT22;50211;52.768;12.124;2022-08-19T11:49:19;20.30;99.90
64012;DHT22;50211;52.768;12.124;2022-08-19T11:51:45;20.40;99.90
64012;DHT22;50211;52.768;12.124;2022-08-19T11:54:13;20.40;99.90
64012;DHT22;50211;52.768;12.124;2022-08-19T11:56:39;20.40;99.90
64012;DHT22;50211;52.768;12.124;2022-08-19T11:59:05;20.40;99.90
64012;DHT22;50211;52.768;12.124;2022-08-19T12:01:31;20.40;99.90
64012;DHT22;50211;52.768;12.124;2022-08-19T12:03:57;20.40;99.90
64012;DHT22;50211;52.768;12.124;2022-08-19T12:06:27;20.40;99.90
64012;DHT22;50211;52.768;12.124;2022-08-19T12:08:54;20.30;99.90
64012;DHT22;50211;52.768;12.124;2022-08-19T12:11:20;20.30;99.90
64012;DHT22;50211;52.768;12.124;2022-08-19T12:13:46;20.40;99.90
64012;DHT22;50211;52.768;12.124;2022-08-19T12:16:16;20.40;99.90
64012;DHT22;50211;52.768;12.124;2022-08-19T12:18:43;20.40;99.90
64012;DHT22;50211;52.768;12.124;2022-08-19T12:21:16;20.50;99.90
64012;DHT22;50211;52.768;12.124;2022-08-19T12:23:42;20.40;99.90
64012;DHT22;50211;52.768;12.124;2022-08-19T12:26:10;20.40;99.90
64012;DHT22;50211;52.768;12.124;2022-08-19T12:28:36;20.40;99.90
64012;DHT22;50211;52.768;12.124;2022-08-19T12:31:02;20.40;99.90
64012;DHT22;50211;52.768;12.124;2022-08-19T12:33:27;20.30;99.90
64012;DHT22;50211;52.768;12.124;2022-08-19T12:35:54;20.30;99.90
64012;DHT22;50211;52.768;12.124;2022-08-19T12:38:20;20.30;99.90
64012;DHT22;50211;52.768;12.124;2022-08-19T12:40:48;20.20;99.90
64012;DHT22;50211;52.768;12.124;2022-08-19T12:43:16;20.30;99.90
64012;DHT22;50211;52.768;12.124;2022-08-19T12:45:42;20.30;99.90
64012;DHT22;50211;52.768;12.124;2022-08-19T12:48:09;20.30;99.90
64012;DHT22;50211;52.768;12.124;2022-08-19T12:50:34;20.20;99.90
64012;DHT22;50211;52.768;12.124;2022-08-19T12:53:00;20.30;99.90
64012;DHT22;50211;52.768;12.124;2022-08-19T12:55:26;20.30;99.90
64012;DHT22;50211;52.768;12.124;2022-08-19T12:57:54;20.30;99.90
64012;DHT22;50211;52.768;12.124;2022-08-19T13:00:21;20.30;99.90
64012;DHT22;50211;52.768;12.124;2022-08-19T13:02:48;20.30;99.90
64012;DHT22;50211;52.768;12.124;2022-08-19T13:05:18;20.30;99.90
64012;DHT22;50211;52.768;12.124;2022-08-19T13:07:46;20.30;99.90
64012;DHT22;50211;52.768;12.124;2022-08-19T13:10:14;20.40;99.90
64012;DHT22;50211;52.768;12.124;2022-08-19T13:12:41;20.50;99.90
64012;DHT22;50211;52.768;12.124;2022-08-19T13:15:07;20.50;99.90
64012;DHT22;50211;52.768;12.124;2022-08-19T13:17:34;20.50;99.90
64012;DHT22;50211;52.768;12.124;2022-08-19T13:19:59;20.50;99.90
64012;DHT22;50211;52.768;12.124;2022-08-19T13:22:25;20.50;99.90
64012;DHT22;50211;52.768;12.124;2022-08-19T13:24:51;20.60;99.90
64012;DHT22;50211;52.768;12.124;2022-08-19T13:27:16;20.60;99.90
64012;DHT22;50211;52.768;12.124;2022-08-19T13:29:42;20.50;99.90
64012;DHT22;50211;52.768;12.124;2022-08-19T13:32:26;20.60;99.90
64012;DHT22;50211;52.768;12.124;2022-08-19T13:35:10;20.60;99.90
64012;DHT22;50211;52.768;12.124;2022-08-19T13:37:36;20.60;99.90
64012;DHT22;50211;52.768;12.124;2022-08-19T13:40:12;20.60;99.90
64012;DHT22;50211;52.768;12.124;2022-08-19T13:42:43;20.70;99.90
64012;DHT22;50211;52.768;12.124;2022-08-19T13:45:11;20.70;99.90
64012;DHT22;50211;52.768;12.124;2022-08-19T13:47:38;20.80;99.90
64012;DHT22;50211;52.768;12.124;2022-08-19T13:50:09;20.80;99.90
64012;DHT22;50211;52.768;12.124;2022-08-19T13:52:36;20.90;99.90
64012;DHT22;50211;52.768;12.124;2022-08-19T13:55:02;21.00;99.90
64012;DHT22;50211;52.768;12.124;2022-08-19T13:57:29;21.00;99.90
64012;DHT22;50211;52.768;12.124;2022-08-19T13:59:56;21.00;99.90
64012;DHT22;50211;52.768;12.124;2022-08-19T14:02:23;21.00;99.90
64012;DHT22;50211;52.768;12.124;2022-08-19T14:04:48;21.10;99.90
64012;DHT22;50211;52.768;12.124;2022-08-19T14:07:14;21.20;99.90
64012;DHT22;50211;52.768;12.124;2022-08-19T14:09:39;21.30;99.90
64012;DHT22;50211;52.768;12.124;2022-08-19T14:12:05;21.50;99.90
64012;DHT22;50211;52.768;12.124;2022-08-19T14:14:30;21.60;99.90
64012;DHT22;50211;52.768;12.124;2022-08-19T14:16:56;21.70;99.90
64012;DHT22;50211;52.768;12.124;2022-08-19T14:19:22;21.80;99.90
64012;DHT22;50211;52.768;12.124;2022-08-19T14:21:47;21.80;99.90
64012;DHT22;50211;52.768;12.124;2022-08-19T14:24:13;21.70;99.90
64012;DHT22;50211;52.768;12.124;2022-08-19T14:26:38;21.70;99.90
64012;DHT22;50211;52.768;12.124;2022-08-19T14:29:04;21.70;99.90
64012;DHT22;50211;52.768;12.124;2022-08-19T14:31:29;21.70;99.90
64012;DHT22;50211;52.768;12.124;2022-08-19T14:33:55;21.70;99.90
64012;DHT22;50211;52.768;12.124;2022-08-19T14:36:20;21.90;99.90
64012;DHT22;50211;52.768;12.124;2022-08-19T14:38:47;21.90;99.90
64012;DHT22;50211;52.768;12.124;2022-08-19T14:41:19;21.70;99.90
64012;DHT22;50211;52.768;12.124;2022-08-19T14:43:51;21.70;99.90
64012;DHT22;50211;52.768;12.124;2022-08-19T14:46:23;21.50;99.90
64012;DHT22;50211;52.768;12.124;2022-08-19T14:48:49;21.40;99.90
64012;DHT22;50211;52.768;12.124;2022-08-19T14:51:15;21.40;99.90
64012;DHT22;50211;52.768;12.124;2022-08-19T14:53:42;21.40;99.90
64012;DHT22;50211;52.768;12.124;2022-08-19T14:56:12;21.40;99.90
64012;DHT22;50211;52.768;12.124;2022-08-19T14:58:39;21.40;99.90
64012;DHT22;50211;52.768;12.124;2022-08-19T15:01:06;21.50;99.90
64012;DHT22;50211;52.768;12.124;2022-08-19T15:03:32;21.50;99.90
64012;DHT22;50211;52.768;12.124;2022-08-19T15:06:00;21.50;99.90
64012;DHT22;50211;52.768;12.124;2022-08-19T15:08:27;21.40;99.90
64012;DHT22;50211;52.768;12.124;2022-08-19T15:10:54;21.40;99.90
64012;DHT22;50211;52.768;12.124;2022-08-19T15:13:20;21.40;99.90
64012;DHT22;50211;52.768;12.124;2022-08-19T15:15:47;21.30;99.90
64012;DHT22;50211;52.768;12.124;2022-08-19T15:18:12;21.30;99.90
64012;DHT22;50211;52.768;12.124;2022-08-19T15:20:38;21.20;99.90
64012;DHT22;50211;52.768;12.124;2022-08-19T15:23:04;21.20;99.90